sensor_id;sensor_type;location;lat;lon;timestamp;temperature;humidity
32865;DHT22;19219;44.500;11.188;2023-06-14T00:00:13;17.80;99.90
32865;DHT22;19219;44.500;11.188;2023-06-14T00:02:40;17.70;99.90
32865;DHT22;19219;44.500;11.188;2023-06-14T00:05:07;17.60;99.90
32865;DHT22;19219;44.500;11.188;2023-06-14T00:07:38;17.50;99.90
32865;DHT22;19219;44.500;11.188;2023-06-14T00:10:08;17.40;99.90
32865;DHT22;19219;44.500;11.188;2023-06-14T00:12:34;17.30;99.90
32865;DHT22;19219;44.500;11.188;2023-06-14T00:15:00;17.30;99.90
32865;DHT22;19219;44.500;11.188;2023-06-14T00:17:30;17.30;99.90
32865;DHT22;19219;44.500;11.188;2023-06-14T00:19:59;17.30;99.90
32865;DHT22;19219;44.500;11.188;2023-06-14T00:22:25;17.20;99.90
32865;DHT22;19219;44.500;11.188;2023-06-14T00:24:51;17.20;99.90
32865;DHT22;19219;44.500;11.188;2023-06-14T00:27:17;17.20;99.90
32865;DHT22;19219;44.500;11.188;2023-06-14T00:29:43;17.20;99.90
32865;DHT22;19219;44.500;11.188;2023-06-14T00:32:08;17.20;99.90
32865;DHT22;19219;44.500;11.188;2023-06-14T00:34:34;17.30;99.90
32865;DHT22;19219;44.500;11.188;2023-06-14T00:37:00;17.30;99.90
32865;DHT22;19219;44.500;11.188;2023-06-14T00:39:26;17.30;99.90
32865;DHT22;19219;44.500;11.188;2023-06-14T00:41:51;17.20;99.90
32865;DHT22;19219;44.500;11.188;2023-06-14T00:44:17;17.20;99.90
32865;DHT22;19219;44.500;11.188;2023-06-14T00:46:46;17.20;99.90
32865;DHT22;19219;44.500;11.188;2023-06-14T00:49:14;17.30;99.90
32865;DHT22;19219;44.500;11.188;2023-06-14T00:51:41;17.30;99.90
32865;DHT22;19219;44.500;11.188;2023-06-14T00:54:07;17.40;99.90
32865;DHT22;19219;44.500;11.188;2023-06-14T00:56:33;17.40;99.90
32865;DHT22;19219;44.500;11.188;2023-06-14T00:58:58;17.50;99.90
32865;DHT22;19219;44.500;11.188;2023-06-14T01:01:25;17.50;99.90
32865;DHT22;19219;44.500;11.188;2023-06-14T01:03:50;17.50;99.90
32865;DHT22;19219;44.500;11.188;2023-06-14T01:09:27;17.50;99.90
32865;DHT22;19219;44.500;11.188;2023-06-14T01:15:08;17.50;99.90
32865;DHT22;19219;44.500;11.188;2023-06-14T01:17:35;17.40;99.90
32865;DHT22;19219;44.500;11.188;2023-06-14T01:20:02;17.50;99.90
32865;DHT22;19219;44.500;11.188;2023-06-14T01:22:28;17.50;99.90
32865;DHT22;19219;44.500;11.188;2023-06-14T01:24:54;17.50;99.90
32865;DHT22;19219;44.500;11.188;2023-06-14T01:27:24;17.50;99.90
32865;DHT22;19219;44.500;11.188;2023-06-14T01:29:55;17.50;99.90
32865;DHT22;19219;44.500;11.188;2023-06-14T01:32:24;17.50;99.90
32865;DHT22;19219;44.500;11.188;2023-06-14T01:34:50;17.40;99.90
32865;DHT22;19219;44.500;11.188;2023-06-14T01:37:16;17.30;99.90
32865;DHT22;19219;44.500;11.188;2023-06-14T01:39:43;17.40;99.90
32865;DHT22;19219;44.500;11.188;2023-06-14T01:42:11;17.30;99.90
32865;DHT22;19219;44.500;11.188;2023-06-14T01:44:38;17.20;99.90
32865;DHT22;19219;44.500;11.188;2023-06-14T01:47:05;17.20;99.90
32865;DHT22;19219;44.500;11.188;2023-06-14T01:49:34;17.20;99.90
32865;DHT22;19219;44.500;11.188;2023-06-14T01:52:00;17.20;99.90
32865;DHT22;19219;44.500;11.188;2023-06-14T01:54:26;17.20;99.90
32865;DHT22;19219;44.500;11.188;2023-06-14T01:56:52;17.30;99.90
32865;DHT22;19219;44.500;11.188;2023-06-14T01:59:18;17.30;99.90
32865;DHT22;19219;44.500;11.188;2023-06-14T02:01:44;17.40;99.90
32865;DHT22;19219;44.500;11.188;2023-06-14T02:04:11;17.40;99.90
32865;DHT22;19219;44.500;11.188;2023-06-14T02:06:37;17.40;99.90
32865;DHT22;19219;44.500;11.188;2023-06-14T02:09:03;17.40;99.90
32865;DHT22;19219;44.500;11.188;2023-06-14T02:11:29;17.50;99.90
32865;DHT22;19219;44.500;11.188;2023-06-14T02:13:56;17.50;99.90
32865;DHT22;19219;44.500;11.188;2023-06-14T02:16:21;17.50;99.90
32865;DHT22;19219;44.500;11.188;2023-06-14T02:18:48;17.50;99.90
32865;DHT22;19219;44.500;11.188;2023-06-14T02:21:14;17.50;99.90
32865;DHT22;19219;44.500;11.188;2023-06-14T02:23:39;17.50;99.90
32865;DHT22;19219;44.500;11.188;2023-06-14T02:26:05;17.40;99.90
32865;DHT22;19219;44.500;11.188;2023-06-14T02:28:31;17.30;99.90
32865;DHT22;19219;44.500;11.188;2023-06-14T02:30:57;17.20;99.90
32865;DHT22;19219;44.500;11.188;2023-06-14T02:33:22;17.20;99.90
32865;DHT22;19219;44.500;11.188;2023-06-14T02:35:48;17.20;99.90
32865;DHT22;19219;44.500;11.188;2023-06-14T02:38:13;17.20;99.90
32865;DHT22;19219;44.500;11.188;2023-06-14T02:40:39;17.20;99.90
32865;DHT22;19219;44.500;11.188;2023-06-14T02:43:08;17.20;99.90
32865;DHT22;19219;44.500;11.188;2023-06-14T02:45:33;17.20;99.90
32865;DHT22;19219;44.500;11.188;2023-06-14T02:47:59;17.20;99.90
32865;DHT22;19219;44.500;11.188;2023-06-14T02:50:24;17.30;99.90
32865;DHT22;19219;44.500;11.188;2023-06-14T02:52:50;17.30;99.90
32865;DHT22;19219;44.500;11.188;2023-06-14T02:55:17;17.30;99.90
32865;DHT22;19219;44.500;11.188;2023-06-14T02:57:43;17.30;99.90
32865;DHT22;19219;44.500;11.188;2023-06-14T03:00:09;17.30;99.90
32865;DHT22;19219;44.500;11.188;2023-06-14T03:02:35;17.30;99.90
32865;DHT22;19219;44.500;11.188;2023-06-14T03:05:01;17.30;99.90
32865;DHT22;19219;44.500;11.188;2023-06-14T03:07:28;17.10;99.90
32865;DHT22;19219;44.500;11.188;2023-06-14T03:09:55;17.00;99.90
32865;DHT22;19219;44.500;11.188;2023-06-14T03:12:20;16.90;99.90
32865;DHT22;19219;44.500;11.188;2023-06-14T03:14:46;16.80;99.90
32865;DHT22;19219;44.500;11.188;2023-06-14T03:17:12;16.80;99.90
32865;DHT22;19219;44.500;11.188;2023-06-14T03:19:38;16.70;99.90
32865;DHT22;19219;44.500;11.188;2023-06-14T03:22:03;16.50;99.90
32865;DHT22;19219;44.500;11.188;2023-06-14T03:24:30;16.50;99.90
32865;DHT22;19219;44.500;11.188;2023-06-14T03:26:57;16.50;99.90
32865;DHT22;19219;44.500;11.188;2023-06-14T03:29:23;16.50;99.90
32865;DHT22;19219;44.500;11.188;2023-06-14T03:32:15;16.50;99.90
32865;DHT22;19219;44.500;11.188;2023-06-14T03:34:40;16.40;99.90
32865;DHT22;19219;44.500;11.188;2023-06-14T03:37:06;16.50;99.90
32865;DHT22;19219;44.500;11.188;2023-06-14T03:39:32;16.50;99.90
32865;DHT22;19219;44.500;11.188;2023-06-14T03:41:58;16.50;99.90
32865;DHT22;19219;44.500;11.188;2023-06-14T03:44:26;16.50;99.90
32865;DHT22;19219;44.500;11.188;2023-06-14T03:46:52;16.40;99.90
32865;DHT22;19219;44.500;11.188;2023-06-14T03:49:18;16.40;99.90
32865;DHT22;19219;44.500;11.188;2023-06-14T03:51:44;16.50;99.90
32865;DHT22;19219;44.500;11.188;2023-06-14T03:54:10;16.40;99.90
32865;DHT22;19219;44.500;11.188;2023-06-14T03:56:36;16.40;99.90
32865;DHT22;19219;44.500;11.188;2023-06-14T03:59:02;16.50;99.90
32865;DHT22;19219;44.500;11.188;2023-06-14T04:01:28;16.50;99.90
32865;DHT22;19219;44.500;11.188;2023-06-14T04:03:56;16.60;99.90
32865;DHT22;19219;44.500;11.188;2023-06-14T04:06:23;16.70;99.90
32865;DHT22;19219;44.500;11.188;2023-06-14T04:08:51;16.70;99.90
32865;DHT22;19219;44.500;11.188;2023-06-14T04:11:17;16.70;99.90
32865;DHT22;19219;44.500;11.188;2023-06-14T04:13:43;16.80;99.90
32865;DHT22;19219;44.500;11.188;2023-06-14T04:16:09;16.90;99.90
32865;DHT22;19219;44.500;11.188;2023-06-14T04:18:35;17.00;99.90
32865;DHT22;19219;44.500;11.188;2023-06-14T04:21:00;17.10;99.90
32865;DHT22;19219;44.500;11.188;2023-06-14T04:23:26;17.20;99.90
32865;DHT22;19219;44.500;11.188;2023-06-14T04:25:54;17.30;99.90
32865;DHT22;19219;44.500;11.188;2023-06-14T04:28:27;17.40;99.90
32865;DHT22;19219;44.500;11.188;2023-06-14T04:30:53;17.50;99.90
32865;DHT22;19219;44.500;11.188;2023-06-14T04:33:19;17.60;99.90
32865;DHT22;19219;44.500;11.188;2023-06-14T04:35:45;17.70;99.90
32865;DHT22;19219;44.500;11.188;2023-06-14T04:38:12;17.80;99.90
32865;DHT22;19219;44.500;11.188;2023-06-14T04:40:38;18.00;99.90
32865;DHT22;19219;44.500;11.188;2023-06-14T04:43:08;18.20;99.90
32865;DHT22;19219;44.500;11.188;2023-06-14T04:45:38;18.40;99.90
32865;DHT22;19219;44.500;11.188;2023-06-14T04:48:05;18.60;99.90
32865;DHT22;19219;44.500;11.188;2023-06-14T04:50:32;18.80;99.90
32865;DHT22;19219;44.500;11.188;2023-06-14T04:52:58;19.00;99.90
32865;DHT22;19219;44.500;11.188;2023-06-14T04:55:25;19.00;99.90
32865;DHT22;19219;44.500;11.188;2023-06-14T04:57:51;19.20;99.90
32865;DHT22;19219;44.500;11.188;2023-06-14T05:00:19;19.40;99.90
32865;DHT22;19219;44.500;11.188;2023-06-14T05:02:45;19.70;99.90
32865;DHT22;19219;44.500;11.188;2023-06-14T05:05:12;20.50;99.90
32865;DHT22;19219;44.500;11.188;2023-06-14T05:07:38;21.20;99.90
32865;DHT22;19219;44.500;11.188;2023-06-14T05:10:04;21.70;99.90
32865;DHT22;19219;44.500;11.188;2023-06-14T05:12:30;22.70;99.90
32865;DHT22;19219;44.500;11.188;2023-06-14T05:14:56;23.90;99.90
32865;DHT22;19219;44.500;11.188;2023-06-14T05:17:24;25.10;99.90
32865;DHT22;19219;44.500;11.188;2023-06-14T05:19:49;25.80;99.90
32865;DHT22;19219;44.500;11.188;2023-06-14T05:22:15;27.40;99.90
32865;DHT22;19219;44.500;11.188;2023-06-14T05:24:40;28.10;99.90
32865;DHT22;19219;44.500;11.188;2023-06-14T05:27:07;29.30;99.90
32865;DHT22;19219;44.500;11.188;2023-06-14T05:29:33;29.40;99.90
32865;DHT22;19219;44.500;11.188;2023-06-14T05:31:59;28.20;99.90
32865;DHT22;19219;44.500;11.188;2023-06-14T05:34:25;27.80;99.90
32865;DHT22;19219;44.500;11.188;2023-06-14T05:36:51;27.40;99.90
32865;DHT22;19219;44.500;11.188;2023-06-14T05:39:16;26.60;99.90
32865;DHT22;19219;44.500;11.188;2023-06-14T05:41:42;27.00;99.90
32865;DHT22;19219;44.500;11.188;2023-06-14T05:44:08;27.40;99.90
32865;DHT22;19219;44.500;11.188;2023-06-14T05:46:34;28.20;99.90
32865;DHT22;19219;44.500;11.188;2023-06-14T05:48:59;29.10;99.90
32865;DHT22;19219;44.500;11.188;2023-06-14T05:51:25;30.20;99.90
32865;DHT22;19219;44.500;11.188;2023-06-14T05:53:52;30.30;99.90
32865;DHT22;19219;44.500;11.188;2023-06-14T05:56:18;31.00;99.90
32865;DHT22;19219;44.500;11.188;2023-06-14T05:58:44;31.10;99.90
32865;DHT22;19219;44.500;11.188;2023-06-14T06:01:10;31.30;99.90
32865;DHT22;19219;44.500;11.188;2023-06-14T06:03:36;31.00;99.90
32865;DHT22;19219;44.500;11.188;2023-06-14T06:06:02;30.30;99.90
32865;DHT22;19219;44.500;11.188;2023-06-14T06:08:28;29.40;99.90
32865;DHT22;19219;44.500;11.188;2023-06-14T06:10:55;28.20;99.90
32865;DHT22;19219;44.500;11.188;2023-06-14T06:13:21;26.90;99.90
32865;DHT22;19219;44.500;11.188;2023-06-14T06:15:46;26.60;99.90
32865;DHT22;19219;44.500;11.188;2023-06-14T06:18:12;26.30;99.90
32865;DHT22;19219;44.500;11.188;2023-06-14T06:20:38;26.40;99.90
32865;DHT22;19219;44.500;11.188;2023-06-14T06:23:03;26.60;99.90
32865;DHT22;19219;44.500;11.188;2023-06-14T06:25:29;27.20;99.90
32865;DHT22;19219;44.500;11.188;2023-06-14T06:27:57;28.00;99.90
32865;DHT22;19219;44.500;11.188;2023-06-14T06:30:24;29.00;99.90
32865;DHT22;19219;44.500;11.188;2023-06-14T06:32:50;30.00;99.90
32865;DHT22;19219;44.500;11.188;2023-06-14T06:35:16;30.50;99.90
32865;DHT22;19219;44.500;11.188;2023-06-14T06:37:42;30.20;99.90
32865;DHT22;19219;44.500;11.188;2023-06-14T06:40:08;30.10;99.90
32865;DHT22;19219;44.500;11.188;2023-06-14T06:42:34;30.10;99.90
32865;DHT22;19219;44.500;11.188;2023-06-14T06:45:00;29.90;99.90
32865;DHT22;19219;44.500;11.188;2023-06-14T06:47:26;30.20;99.90
32865;DHT22;19219;44.500;11.188;2023-06-14T06:49:52;30.20;99.90
32865;DHT22;19219;44.500;11.188;2023-06-14T06:52:17;30.20;99.90
32865;DHT22;19219;44.500;11.188;2023-06-14T06:54:43;30.20;99.90
32865;DHT22;19219;44.500;11.188;2023-06-14T06:57:09;30.90;99.90
32865;DHT22;19219;44.500;11.188;2023-06-14T06:59:36;31.80;99.90
32865;DHT22;19219;44.500;11.188;2023-06-14T07:02:02;32.00;99.90
32865;DHT22;19219;44.500;11.188;2023-06-14T07:04:28;32.70;99.90
32865;DHT22;19219;44.500;11.188;2023-06-14T07:06:54;32.50;99.90
32865;DHT22;19219;44.500;11.188;2023-06-14T07:09:19;33.20;99.90
32865;DHT22;19219;44.500;11.188;2023-06-14T07:11:47;34.40;98.40
32865;DHT22;19219;44.500;11.188;2023-06-14T07:14:13;34.90;97.10
32865;DHT22;19219;44.500;11.188;2023-06-14T07:16:38;35.30;94.60
32865;DHT22;19219;44.500;11.188;2023-06-14T07:19:05;34.80;93.10
32865;DHT22;19219;44.500;11.188;2023-06-14T07:21:31;34.20;93.90
32865;DHT22;19219;44.500;11.188;2023-06-14T07:23:56;33.30;94.50
32865;DHT22;19219;44.500;11.188;2023-06-14T07:26:22;32.60;95.50
32865;DHT22;19219;44.500;11.188;2023-06-14T07:28:49;31.60;96.70
32865;DHT22;19219;44.500;11.188;2023-06-14T07:31:18;31.00;98.40
32865;DHT22;19219;44.500;11.188;2023-06-14T07:33:45;30.90;98.70
32865;DHT22;19219;44.500;11.188;2023-06-14T07:36:10;31.10;98.40
32865;DHT22;19219;44.500;11.188;2023-06-14T07:38:36;31.40;98.50
32865;DHT22;19219;44.500;11.188;2023-06-14T07:41:02;31.80;98.20
32865;DHT22;19219;44.500;11.188;2023-06-14T07:43:28;32.60;97.30
32865;DHT22;19219;44.500;11.188;2023-06-14T07:45:53;33.30;96.10
32865;DHT22;19219;44.500;11.188;2023-06-14T07:48:19;33.80;94.80
32865;DHT22;19219;44.500;11.188;2023-06-14T07:50:45;33.20;94.40
32865;DHT22;19219;44.500;11.188;2023-06-14T07:53:10;32.30;95.00
32865;DHT22;19219;44.500;11.188;2023-06-14T07:55:36;30.90;97.40
32865;DHT22;19219;44.500;11.188;2023-06-14T07:58:08;30.60;98.40
32865;DHT22;19219;44.500;11.188;2023-06-14T08:00:34;29.90;99.60
32865;DHT22;19219;44.500;11.188;2023-06-14T08:02:59;29.40;99.90
32865;DHT22;19219;44.500;11.188;2023-06-14T08:05:26;29.10;99.90
32865;DHT22;19219;44.500;11.188;2023-06-14T08:07:52;29.40;99.90
32865;DHT22;19219;44.500;11.188;2023-06-14T08:10:18;29.50;99.90
32865;DHT22;19219;44.500;11.188;2023-06-14T08:12:43;29.50;99.90
32865;DHT22;19219;44.500;11.188;2023-06-14T08:15:10;29.70;99.90
32865;DHT22;19219;44.500;11.188;2023-06-14T08:17:36;30.10;99.90
32865;DHT22;19219;44.500;11.188;2023-06-14T08:20:02;30.70;99.90
32865;DHT22;19219;44.500;11.188;2023-06-14T08:43:13;30.20;99.90
32865;DHT22;19219;44.500;11.188;2023-06-14T08:45:39;29.90;99.90
32865;DHT22;19219;44.500;11.188;2023-06-14T08:48:05;29.80;99.90
32865;DHT22;19219;44.500;11.188;2023-06-14T08:50:32;29.80;99.90
32865;DHT22;19219;44.500;11.188;2023-06-14T08:53:00;30.10;99.90
32865;DHT22;19219;44.500;11.188;2023-06-14T08:55:28;30.30;99.90
32865;DHT22;19219;44.500;11.188;2023-06-14T08:57:58;30.10;99.90
32865;DHT22;19219;44.500;11.188;2023-06-14T09:00:25;30.30;99.90
32865;DHT22;19219;44.500;11.188;2023-06-14T09:02:52;30.00;99.90
32865;DHT22;19219;44.500;11.188;2023-06-14T09:05:23;29.90;99.90
32865;DHT22;19219;44.500;11.188;2023-06-14T09:07:49;29.80;99.90
32865;DHT22;19219;44.500;11.188;2023-06-14T09:10:17;29.80;99.90
32865;DHT22;19219;44.500;11.188;2023-06-14T09:12:43;29.80;99.90
32865;DHT22;19219;44.500;11.188;2023-06-14T09:15:09;29.60;99.90
32865;DHT22;19219;44.500;11.188;2023-06-14T09:17:36;29.50;99.90
32865;DHT22;19219;44.500;11.188;2023-06-14T09:20:06;29.50;99.90
32865;DHT22;19219;44.500;11.188;2023-06-14T09:22:32;29.70;99.90
32865;DHT22;19219;44.500;11.188;2023-06-14T09:24:59;29.70;99.90
32865;DHT22;19219;44.500;11.188;2023-06-14T09:27:31;29.90;99.90
32865;DHT22;19219;44.500;11.188;2023-06-14T09:29:57;29.80;99.90
32865;DHT22;19219;44.500;11.188;2023-06-14T09:32:24;30.10;99.90
32865;DHT22;19219;44.500;11.188;2023-06-14T09:34:50;30.10;99.90
32865;DHT22;19219;44.500;11.188;2023-06-14T09:37:32;30.40;99.90
32865;DHT22;19219;44.500;11.188;2023-06-14T09:39:58;30.60;99.90
32865;DHT22;19219;44.500;11.188;2023-06-14T09:42:24;30.40;99.90
32865;DHT22;19219;44.500;11.188;2023-06-14T09:44:54;30.20;99.90
32865;DHT22;19219;44.500;11.188;2023-06-14T09:47:21;30.00;99.90
32865;DHT22;19219;44.500;11.188;2023-06-14T09:49:48;29.90;99.90
32865;DHT22;19219;44.500;11.188;2023-06-14T09:52:15;29.70;99.90
32865;DHT22;19219;44.500;11.188;2023-06-14T09:54:42;29.70;99.90
32865;DHT22;19219;44.500;11.188;2023-06-14T09:57:11;29.60;99.90
32865;DHT22;19219;44.500;11.188;2023-06-14T09:59:44;29.30;99.90
32865;DHT22;19219;44.500;11.188;2023-06-14T10:04:58;28.30;99.90
32865;DHT22;19219;44.500;11.188;2023-06-14T10:07:30;28.10;99.90
32865;DHT22;19219;44.500;11.188;2023-06-14T10:09:57;27.90;99.90
32865;DHT22;19219;44.500;11.188;2023-06-14T10:12:23;27.70;99.90
32865;DHT22;19219;44.500;11.188;2023-06-14T10:14:51;27.50;99.90
32865;DHT22;19219;44.500;11.188;2023-06-14T10:17:46;27.50;99.90
32865;DHT22;19219;44.500;11.188;2023-06-14T10:23:01;27.40;99.90
32865;DHT22;19219;44.500;11.188;2023-06-14T10:25:30;27.40;99.90
32865;DHT22;19219;44.500;11.188;2023-06-14T10:28:03;27.20;99.90
32865;DHT22;19219;44.500;11.188;2023-06-14T10:30:38;27.00;99.90
32865;DHT22;19219;44.500;11.188;2023-06-14T10:33:07;26.80;99.90
32865;DHT22;19219;44.500;11.188;2023-06-14T10:35:33;26.50;99.90
32865;DHT22;19219;44.500;11.188;2023-06-14T10:38:10;26.20;99.90
32865;DHT22;19219;44.500;11.188;2023-06-14T10:40:36;26.00;99.90
32865;DHT22;19219;44.500;11.188;2023-06-14T10:43:21;26.10;99.90
32865;DHT22;19219;44.500;11.188;2023-06-14T10:46:17;25.90;99.90
32865;DHT22;19219;44.500;11.188;2023-06-14T10:48:44;25.80;99.90
32865;DHT22;19219;44.500;11.188;2023-06-14T10:51:20;25.70;99.90
32865;DHT22;19219;44.500;11.188;2023-06-14T10:53:51;25.60;99.90
32865;DHT22;19219;44.500;11.188;2023-06-14T10:56:52;25.60;99.90
32865;DHT22;19219;44.500;11.188;2023-06-14T10:59:19;25.60;99.90
32865;DHT22;19219;44.500;11.188;2023-06-14T11:01:58;25.70;99.90
32865;DHT22;19219;44.500;11.188;2023-06-14T11:04:40;25.70;99.90
32865;DHT22;19219;44.500;11.188;2023-06-14T11:07:43;25.80;99.90
32865;DHT22;19219;44.500;11.188;2023-06-14T11:12:57;25.90;99.90
32865;DHT22;19219;44.500;11.188;2023-06-14T11:15:34;25.70;99.90
32865;DHT22;19219;44.500;11.188;2023-06-14T11:18:01;25.60;99.90
32865;DHT22;19219;44.500;11.188;2023-06-14T11:20:30;25.40;99.90
32865;DHT22;19219;44.500;11.188;2023-06-14T11:22:56;25.20;99.90
32865;DHT22;19219;44.500;11.188;2023-06-14T11:25:22;24.70;99.90
32865;DHT22;19219;44.500;11.188;2023-06-14T11:27:51;24.50;99.90
32865;DHT22;19219;44.500;11.188;2023-06-14T11:30:17;24.60;99.90
32865;DHT22;19219;44.500;11.188;2023-06-14T11:32:49;24.70;99.90
32865;DHT22;19219;44.500;11.188;2023-06-14T11:35:16;24.80;99.90
32865;DHT22;19219;44.500;11.188;2023-06-14T11:37:43;24.80;99.90
32865;DHT22;19219;44.500;11.188;2023-06-14T11:40:10;24.80;99.90
32865;DHT22;19219;44.500;11.188;2023-06-14T11:42:41;24.70;99.90
32865;DHT22;19219;44.500;11.188;2023-06-14T11:45:08;24.70;99.90
32865;DHT22;19219;44.500;11.188;2023-06-14T11:47:35;24.60;99.90
32865;DHT22;19219;44.500;11.188;2023-06-14T11:50:02;24.60;99.90
32865;DHT22;19219;44.500;11.188;2023-06-14T11:52:28;24.50;99.90
32865;DHT22;19219;44.500;11.188;2023-06-14T11:54:56;24.50;99.90
32865;DHT22;19219;44.500;11.188;2023-06-14T11:57:22;24.50;99.90
32865;DHT22;19219;44.500;11.188;2023-06-14T11:59:49;24.60;99.90
32865;DHT22;19219;44.500;11.188;2023-06-14T12:02:21;24.50;99.90
32865;DHT22;19219;44.500;11.188;2023-06-14T12:04:47;24.60;99.90
32865;DHT22;19219;44.500;11.188;2023-06-14T12:07:17;24.60;99.90
32865;DHT22;19219;44.500;11.188;2023-06-14T12:12:20;24.60;99.90
32865;DHT22;19219;44.500;11.188;2023-06-14T12:14:47;24.70;99.90
32865;DHT22;19219;44.500;11.188;2023-06-14T12:17:13;24.70;99.90
32865;DHT22;19219;44.500;11.188;2023-06-14T12:19:42;24.80;99.90
32865;DHT22;19219;44.500;11.188;2023-06-14T12:22:13;24.70;99.90
32865;DHT22;19219;44.500;11.188;2023-06-14T12:24:39;24.50;99.90
32865;DHT22;19219;44.500;11.188;2023-06-14T12:27:05;24.50;99.90
32865;DHT22;19219;44.500;11.188;2023-06-14T12:29:31;24.50;99.90
32865;DHT22;19219;44.500;11.188;2023-06-14T12:31:57;24.50;99.90
32865;DHT22;19219;44.500;11.188;2023-06-14T12:34:24;24.40;99.90
32865;DHT22;19219;44.500;11.188;2023-06-14T12:36:50;24.20;99.90
32865;DHT22;19219;44.500;11.188;2023-06-14T12:39:16;23.90;99.90
32865;DHT22;19219;44.500;11.188;2023-06-14T12:41:42;23.60;99.90
32865;DHT22;19219;44.500;11.188;2023-06-14T12:44:08;23.50;99.90
32865;DHT22;19219;44.500;11.188;2023-06-14T12:46:34;23.50;99.90
32865;DHT22;19219;44.500;11.188;2023-06-14T12:49:05;23.40;99.90
32865;DHT22;19219;44.500;11.188;2023-06-14T12:51:32;23.40;99.90
32865;DHT22;19219;44.500;11.188;2023-06-14T12:53:57;23.40;99.90
32865;DHT22;19219;44.500;11.188;2023-06-14T12:56:23;23.40;99.90
32865;DHT22;19219;44.500;11.188;2023-06-14T12:58:49;23.30;99.90
32865;DHT22;19219;44.500;11.188;2023-06-14T13:01:14;23.20;99.90
32865;DHT22;19219;44.500;11.188;2023-06-14T13:03:40;22.90;99.90
32865;DHT22;19219;44.500;11.188;2023-06-14T13:06:06;22.80;99.90
32865;DHT22;19219;44.500;11.188;2023-06-14T13:08:31;22.80;99.90
32865;DHT22;19219;44.500;11.188;2023-06-14T13:10:57;22.80;99.90
32865;DHT22;19219;44.500;11.188;2023-06-14T13:13:23;22.80;99.90
32865;DHT22;19219;44.500;11.188;2023-06-14T13:15:49;22.90;99.90
32865;DHT22;19219;44.500;11.188;2023-06-14T13:18:16;23.00;99.90
32865;DHT22;19219;44.500;11.188;2023-06-14T13:20:42;23.10;99.90
32865;DHT22;19219;44.500;11.188;2023-06-14T13:23:08;23.40;99.90
32865;DHT22;19219;44.500;11.188;2023-06-14T13:25:36;23.60;99.90
32865;DHT22;19219;44.500;11.188;2023-06-14T13:28:02;23.90;99.90
32865;DHT22;19219;44.500;11.188;2023-06-14T13:30:27;24.00;99.90
32865;DHT22;19219;44.500;11.188;2023-06-14T13:32:53;24.10;99.90
32865;DHT22;19219;44.500;11.188;2023-06-14T13:35:19;24.30;99.90
32865;DHT22;19219;44.500;11.188;2023-06-14T13:37:45;24.40;99.90
32865;DHT22;19219;44.500;11.188;2023-06-14T13:40:11;24.40;99.90
32865;DHT22;19219;44.500;11.188;2023-06-14T13:42:37;24.50;99.90
32865;DHT22;19219;44.500;11.188;2023-06-14T13:45:04;24.50;99.90
32865;DHT22;19219;44.500;11.188;2023-06-14T13:47:31;24.40;99.90
32865;DHT22;19219;44.500;11.188;2023-06-14T13:49:57;24.50;99.90
32865;DHT22;19219;44.500;11.188;2023-06-14T13:52:23;24.50;99.90
32865;DHT22;19219;44.500;11.188;2023-06-14T13:54:49;24.40;99.90
32865;DHT22;19219;44.500;11.188;2023-06-14T13:57:15;24.60;99.90
32865;DHT22;19219;44.500;11.188;2023-06-14T13:59:41;24.80;99.90
32865;DHT22;19219;44.500;11.188;2023-06-14T14:02:10;25.10;99.90
32865;DHT22;19219;44.500;11.188;2023-06-14T14:04:35;25.50;99.90
32865;DHT22;19219;44.500;11.188;2023-06-14T14:07:03;25.70;99.90
32865;DHT22;19219;44.500;11.188;2023-06-14T14:09:28;26.00;99.90
32865;DHT22;19219;44.500;11.188;2023-06-14T14:11:54;26.10;99.90
32865;DHT22;19219;44.500;11.188;2023-06-14T14:14:21;26.10;99.90
32865;DHT22;19219;44.500;11.188;2023-06-14T14:16:46;26.10;99.90
32865;DHT22;19219;44.500;11.188;2023-06-14T14:19:12;26.00;99.90
32865;DHT22;19219;44.500;11.188;2023-06-14T14:21:38;25.90;99.90
32865;DHT22;19219;44.500;11.188;2023-06-14T14:24:04;25.90;99.90
32865;DHT22;19219;44.500;11.188;2023-06-14T14:26:29;25.90;99.90
32865;DHT22;19219;44.500;11.188;2023-06-14T14:28:55;25.90;99.90
32865;DHT22;19219;44.500;11.188;2023-06-14T14:31:21;26.00;99.90
32865;DHT22;19219;44.500;11.188;2023-06-14T14:33:46;25.90;99.90
32865;DHT22;19219;44.500;11.188;2023-06-14T14:36:12;26.30;99.90
32865;DHT22;19219;44.500;11.188;2023-06-14T14:38:39;26.50;99.90
32865;DHT22;19219;44.500;11.188;2023-06-14T14:41:05;26.80;99.90
32865;DHT22;19219;44.500;11.188;2023-06-14T14:43:30;26.70;99.90
32865;DHT22;19219;44.500;11.188;2023-06-14T14:45:57;26.90;99.90
32865;DHT22;19219;44.500;11.188;2023-06-14T14:48:23;27.10;99.90
32865;DHT22;19219;44.500;11.188;2023-06-14T14:50:48;27.20;99.90
32865;DHT22;19219;44.500;11.188;2023-06-14T14:53:14;27.10;99.90
32865;DHT22;19219;44.500;11.188;2023-06-14T14:55:43;26.80;99.90
32865;DHT22;19219;44.500;11.188;2023-06-14T14:58:09;26.60;99.90
32865;DHT22;19219;44.500;11.188;2023-06-14T15:00:35;26.60;99.90
32865;DHT22;19219;44.500;11.188;2023-06-14T15:03:01;26.80;99.90
32865;DHT22;19219;44.500;11.188;2023-06-14T15:05:26;26.90;99.90
32865;DHT22;19219;44.500;11.188;2023-06-14T15:07:53;26.90;99.90
32865;DHT22;19219;44.500;11.188;2023-06-14T15:10:18;26.80;99.90
32865;DHT22;19219;44.500;11.188;2023-06-14T15:12:44;26.90;99.90
32865;DHT22;19219;44.500;11.188;2023-06-14T15:15:10;27.00;99.90
32865;DHT22;19219;44.500;11.188;2023-06-14T15:17:35;27.10;99.90
32865;DHT22;19219;44.500;11.188;2023-06-14T15:20:01;27.10;99.90
32865;DHT22;19219;44.500;11.188;2023-06-14T15:22:28;27.10;99.90
32865;DHT22;19219;44.500;11.188;2023-06-14T15:24:53;27.30;99.90
32865;DHT22;19219;44.500;11.188;2023-06-14T15:27:19;27.30;99.90
32865;DHT22;19219;44.500;11.188;2023-06-14T15:29:45;27.10;99.90
32865;DHT22;19219;44.500;11.188;2023-06-14T15:32:11;27.00;99.90
32865;DHT22;19219;44.500;11.188;2023-06-14T15:34:37;26.80;99.90
32865;DHT22;19219;44.500;11.188;2023-06-14T15:37:08;26.80;99.90
32865;DHT22;19219;44.500;11.188;2023-06-14T15:39:33;26.80;99.90
32865;DHT22;19219;44.500;11.188;2023-06-14T15:41:59;26.70;99.90
32865;DHT22;19219;44.500;11.188;2023-06-14T15:44:26;26.70;99.90
32865;DHT22;19219;44.500;11.188;2023-06-14T15:46:51;26.60;99.90
32865;DHT22;19219;44.500;11.188;2023-06-14T15:49:17;26.60;99.90
32865;DHT22;19219;44.500;11.188;2023-06-14T15:51:44;26.50;99.90